sensor_id;sensor_type;location;lat;lon;timestamp;P1;durP1;ratioP1;P2;durP2;ratioP2
16813;SDS011;8524;57.650;11.926;2022-08-04T00:01:17;8.93;;;4.43;;
16813;SDS011;8524;57.650;11.926;2022-08-04T00:03:50;11.00;;;4.80;;
16813;SDS011;8524;57.650;11.926;2022-08-04T00:06:30;9.73;;;5.45;;
16813;SDS011;8524;57.650;11.926;2022-08-04T00:09:12;8.23;;;4.50;;
16813;SDS011;8524;57.650;11.926;2022-08-04T00:11:43;11.67;;;4.40;;
16813;SDS011;8524;57.650;11.926;2022-08-04T00:14:12;9.97;;;5.10;;
16813;SDS011;8524;57.650;11.926;2022-08-04T00:16:43;7.43;;;4.93;;
16813;SDS011;8524;57.650;11.926;2022-08-04T00:19:15;10.23;;;5.10;;
16813;SDS011;8524;57.650;11.926;2022-08-04T00:21:47;9.60;;;4.80;;
16813;SDS011;8524;57.650;11.926;2022-08-04T00:24:17;11.40;;;6.03;;
16813;SDS011;8524;57.650;11.926;2022-08-04T00:26:47;7.87;;;4.13;;
16813;SDS011;8524;57.650;11.926;2022-08-04T00:29:14;8.87;;;4.90;;
16813;SDS011;8524;57.650;11.926;2022-08-04T00:31:41;12.02;;;5.30;;
16813;SDS011;8524;57.650;11.926;2022-08-04T00:34:09;9.70;;;4.67;;
16813;SDS011;8524;57.650;11.926;2022-08-04T00:36:38;7.60;;;4.07;;
16813;SDS011;8524;57.650;11.926;2022-08-04T00:39:07;7.30;;;4.13;;
16813;SDS011;8524;57.650;11.926;2022-08-04T00:41:39;7.87;;;4.00;;
16813;SDS011;8524;57.650;11.926;2022-08-04T00:44:16;8.07;;;4.10;;
16813;SDS011;8524;57.650;11.926;2022-08-04T00:46:58;8.60;;;4.50;;
16813;SDS011;8524;57.650;11.926;2022-08-04T00:49:34;8.80;;;5.18;;
16813;SDS011;8524;57.650;11.926;2022-08-04T00:52:28;13.43;;;4.90;;
16813;SDS011;8524;57.650;11.926;2022-08-04T00:55:14;10.60;;;5.17;;
16813;SDS011;8524;57.650;11.926;2022-08-04T00:57:54;9.67;;;4.63;;
16813;SDS011;8524;57.650;11.926;2022-08-04T01:00:38;8.60;;;4.33;;
16813;SDS011;8524;57.650;11.926;2022-08-04T01:03:17;13.63;;;5.60;;
16813;SDS011;8524;57.650;11.926;2022-08-04T01:05:51;6.13;;;4.27;;
16813;SDS011;8524;57.650;11.926;2022-08-04T01:08:38;11.60;;;5.10;;
16813;SDS011;8524;57.650;11.926;2022-08-04T01:11:25;8.40;;;4.27;;
16813;SDS011;8524;57.650;11.926;2022-08-04T01:16:56;7.40;;;3.97;;
16813;SDS011;8524;57.650;11.926;2022-08-04T01:19:51;9.77;;;4.50;;
16813;SDS011;8524;57.650;11.926;2022-08-04T01:22:26;6.10;;;3.67;;
16813;SDS011;8524;57.650;11.926;2022-08-04T01:28:30;6.07;;;3.70;;
16813;SDS011;8524;57.650;11.926;2022-08-04T01:31:16;8.57;;;4.43;;
16813;SDS011;8524;57.650;11.926;2022-08-04T01:33:49;5.07;;;3.47;;
16813;SDS011;8524;57.650;11.926;2022-08-04T01:36:21;6.30;;;3.60;;
16813;SDS011;8524;57.650;11.926;2022-08-04T01:38:50;5.47;;;3.63;;
16813;SDS011;8524;57.650;11.926;2022-08-04T01:41:19;4.75;;;3.70;;
16813;SDS011;8524;57.650;11.926;2022-08-04T01:43:47;7.57;;;3.50;;
16813;SDS011;8524;57.650;11.926;2022-08-04T01:46:17;5.77;;;3.87;;
16813;SDS011;8524;57.650;11.926;2022-08-04T01:48:45;6.57;;;3.90;;
16813;SDS011;8524;57.650;11.926;2022-08-04T01:51:12;4.53;;;3.80;;
16813;SDS011;8524;57.650;11.926;2022-08-04T01:53:40;5.33;;;3.77;;
16813;SDS011;8524;57.650;11.926;2022-08-04T01:56:09;6.93;;;4.27;;
16813;SDS011;8524;57.650;11.926;2022-08-04T01:58:38;7.03;;;4.17;;
16813;SDS011;8524;57.650;11.926;2022-08-04T02:01:07;7.63;;;4.00;;
16813;SDS011;8524;57.650;11.926;2022-08-04T02:03:37;6.33;;;3.77;;
16813;SDS011;8524;57.650;11.926;2022-08-04T02:06:17;4.83;;;3.63;;
16813;SDS011;8524;57.650;11.926;2022-08-04T02:08:54;10.07;;;4.93;;
16813;SDS011;8524;57.650;11.926;2022-08-04T02:11:28;6.22;;;4.10;;
16813;SDS011;8524;57.650;11.926;2022-08-04T02:13:56;5.97;;;3.77;;
16813;SDS011;8524;57.650;11.926;2022-08-04T02:16:28;6.60;;;3.50;;
16813;SDS011;8524;57.650;11.926;2022-08-04T02:19:08;6.47;;;3.70;;
16813;SDS011;8524;57.650;11.926;2022-08-04T02:21:41;5.50;;;3.50;;
16813;SDS011;8524;57.650;11.926;2022-08-04T02:24:14;6.67;;;3.80;;
16813;SDS011;8524;57.650;11.926;2022-08-04T02:26:44;5.17;;;3.70;;
16813;SDS011;8524;57.650;11.926;2022-08-04T02:29:16;6.37;;;3.80;;
16813;SDS011;8524;57.650;11.926;2022-08-04T02:31:47;6.50;;;3.60;;
16813;SDS011;8524;57.650;11.926;2022-08-04T02:34:20;6.40;;;3.63;;
16813;SDS011;8524;57.650;11.926;2022-08-04T02:36:53;4.03;;;3.20;;
16813;SDS011;8524;57.650;11.926;2022-08-04T02:39:21;4.93;;;3.20;;
16813;SDS011;8524;57.650;11.926;2022-08-04T02:41:49;5.50;;;3.80;;
16813;SDS011;8524;57.650;11.926;2022-08-04T02:44:19;7.07;;;3.80;;
16813;SDS011;8524;57.650;11.926;2022-08-04T02:46:47;5.27;;;4.00;;
16813;SDS011;8524;57.650;11.926;2022-08-04T02:49:17;6.97;;;3.63;;
16813;SDS011;8524;57.650;11.926;2022-08-04T02:51:46;5.80;;;3.83;;
16813;SDS011;8524;57.650;11.926;2022-08-04T02:54:18;5.63;;;3.70;;
16813;SDS011;8524;57.650;11.926;2022-08-04T02:56:49;6.40;;;3.90;;
16813;SDS011;8524;57.650;11.926;2022-08-04T02:59:17;5.13;;;3.50;;
16813;SDS011;8524;57.650;11.926;2022-08-04T03:01:51;5.17;;;3.60;;
16813;SDS011;8524;57.650;11.926;2022-08-04T03:04:22;4.10;;;3.23;;
16813;SDS011;8524;57.650;11.926;2022-08-04T03:07:22;5.60;;;3.63;;
16813;SDS011;8524;57.650;11.926;2022-08-04T03:19:21;6.70;;;4.03;;
16813;SDS011;8524;57.650;11.926;2022-08-04T03:22:17;6.30;;;3.83;;
16813;SDS011;8524;57.650;11.926;2022-08-04T03:28:15;6.40;;;3.90;;
16813;SDS011;8524;57.650;11.926;2022-08-04T03:30:58;4.70;;;3.13;;
16813;SDS011;8524;57.650;11.926;2022-08-04T03:33:44;5.77;;;3.60;;
16813;SDS011;8524;57.650;11.926;2022-08-04T03:36:33;6.17;;;3.90;;
16813;SDS011;8524;57.650;11.926;2022-08-04T03:39:30;8.43;;;4.60;;
16813;SDS011;8524;57.650;11.926;2022-08-04T03:42:36;6.63;;;4.78;;
16813;SDS011;8524;57.650;11.926;2022-08-04T03:48:47;5.63;;;4.00;;
16813;SDS011;8524;57.650;11.926;2022-08-04T03:51:35;5.03;;;3.40;;
16813;SDS011;8524;57.650;11.926;2022-08-04T03:54:51;5.27;;;3.97;;
16813;SDS011;8524;57.650;11.926;2022-08-04T03:57:51;6.70;;;4.00;;
16813;SDS011;8524;57.650;11.926;2022-08-04T04:00:43;6.70;;;4.27;;
16813;SDS011;8524;57.650;11.926;2022-08-04T04:06:22;5.47;;;4.00;;
16813;SDS011;8524;57.650;11.926;2022-08-04T04:09:16;5.17;;;4.10;;
16813;SDS011;8524;57.650;11.926;2022-08-04T04:12:06;7.40;;;4.47;;
16813;SDS011;8524;57.650;11.926;2022-08-04T04:14:52;6.60;;;3.93;;
16813;SDS011;8524;57.650;11.926;2022-08-04T04:26:23;7.67;;;4.70;;
16813;SDS011;8524;57.650;11.926;2022-08-04T04:29:09;7.57;;;4.67;;
16813;SDS011;8524;57.650;11.926;2022-08-04T04:31:52;5.40;;;3.77;;
16813;SDS011;8524;57.650;11.926;2022-08-04T04:34:31;6.20;;;4.00;;
16813;SDS011;8524;57.650;11.926;2022-08-04T04:37:16;7.70;;;4.63;;
16813;SDS011;8524;57.650;11.926;2022-08-04T04:39:58;6.83;;;4.90;;
16813;SDS011;8524;57.650;11.926;2022-08-04T04:42:47;7.10;;;4.60;;
16813;SDS011;8524;57.650;11.926;2022-08-04T04:45:25;7.43;;;4.37;;
16813;SDS011;8524;57.650;11.926;2022-08-04T04:47:59;9.97;;;4.97;;
16813;SDS011;8524;57.650;11.926;2022-08-04T04:50:35;6.23;;;4.50;;
16813;SDS011;8524;57.650;11.926;2022-08-04T04:53:16;6.93;;;4.43;;
16813;SDS011;8524;57.650;11.926;2022-08-04T04:55:50;4.60;;;4.20;;
16813;SDS011;8524;57.650;11.926;2022-08-04T04:58:23;5.50;;;4.20;;
16813;SDS011;8524;57.650;11.926;2022-08-04T05:01:05;8.07;;;4.87;;
16813;SDS011;8524;57.650;11.926;2022-08-04T05:03:50;5.30;;;4.60;;
16813;SDS011;8524;57.650;11.926;2022-08-04T05:06:39;7.70;;;4.87;;
16813;SDS011;8524;57.650;11.926;2022-08-04T05:09:21;6.50;;;5.00;;
16813;SDS011;8524;57.650;11.926;2022-08-04T05:12:13;6.63;;;4.73;;
16813;SDS011;8524;57.650;11.926;2022-08-04T05:14:47;6.73;;;4.77;;
16813;SDS011;8524;57.650;11.926;2022-08-04T05:17:17;7.40;;;4.40;;
16813;SDS011;8524;57.650;11.926;2022-08-04T05:19:52;5.63;;;4.40;;
16813;SDS011;8524;57.650;11.926;2022-08-04T05:22:27;8.23;;;4.33;;
16813;SDS011;8524;57.650;11.926;2022-08-04T05:24:59;8.87;;;5.00;;
16813;SDS011;8524;57.650;11.926;2022-08-04T05:27:34;6.57;;;4.13;;
16813;SDS011;8524;57.650;11.926;2022-08-04T05:30:05;6.03;;;3.80;;
16813;SDS011;8524;57.650;11.926;2022-08-04T05:32:36;5.17;;;3.70;;
16813;SDS011;8524;57.650;11.926;2022-08-04T05:35:13;8.73;;;5.07;;
16813;SDS011;8524;57.650;11.926;2022-08-04T05:37:44;8.47;;;4.83;;
16813;SDS011;8524;57.650;11.926;2022-08-04T05:40:15;6.57;;;3.90;;
16813;SDS011;8524;57.650;11.926;2022-08-04T05:42:44;5.03;;;3.57;;
16813;SDS011;8524;57.650;11.926;2022-08-04T05:45:12;6.37;;;3.80;;
16813;SDS011;8524;57.650;11.926;2022-08-04T05:47:39;6.73;;;4.33;;
16813;SDS011;8524;57.650;11.926;2022-08-04T05:50:06;6.63;;;4.10;;
16813;SDS011;8524;57.650;11.926;2022-08-04T05:52:35;7.23;;;4.20;;
16813;SDS011;8524;57.650;11.926;2022-08-04T05:55:04;9.93;;;4.50;;
16813;SDS011;8524;57.650;11.926;2022-08-04T05:57:33;5.40;;;3.90;;
16813;SDS011;8524;57.650;11.926;2022-08-04T06:00:03;5.97;;;4.27;;
16813;SDS011;8524;57.650;11.926;2022-08-04T06:02:31;7.00;;;4.30;;
16813;SDS011;8524;57.650;11.926;2022-08-04T06:05:00;5.37;;;3.17;;
16813;SDS011;8524;57.650;11.926;2022-08-04T06:07:29;6.43;;;3.60;;
16813;SDS011;8524;57.650;11.926;2022-08-04T06:09:58;6.83;;;3.20;;
16813;SDS011;8524;57.650;11.926;2022-08-04T06:12:28;8.73;;;3.03;;
16813;SDS011;8524;57.650;11.926;2022-08-04T06:15:01;6.13;;;2.73;;
16813;SDS011;8524;57.650;11.926;2022-08-04T06:17:30;8.53;;;2.93;;
16813;SDS011;8524;57.650;11.926;2022-08-04T06:19:58;5.50;;;2.90;;
16813;SDS011;8524;57.650;11.926;2022-08-04T06:22:28;7.20;;;3.00;;
16813;SDS011;8524;57.650;11.926;2022-08-04T06:24:59;7.50;;;3.30;;
16813;SDS011;8524;57.650;11.926;2022-08-04T06:27:28;8.30;;;2.93;;
16813;SDS011;8524;57.650;11.926;2022-08-04T06:29:55;6.33;;;2.63;;
16813;SDS011;8524;57.650;11.926;2022-08-04T06:32:24;7.17;;;2.60;;
16813;SDS011;8524;57.650;11.926;2022-08-04T06:35:01;5.27;;;2.50;;
16813;SDS011;8524;57.650;11.926;2022-08-04T06:37:29;5.23;;;2.40;;
16813;SDS011;8524;57.650;11.926;2022-08-04T06:39:57;4.50;;;2.40;;
16813;SDS011;8524;57.650;11.926;2022-08-04T06:42:27;3.77;;;2.47;;
16813;SDS011;8524;57.650;11.926;2022-08-04T06:44:56;6.07;;;2.80;;
16813;SDS011;8524;57.650;11.926;2022-08-04T06:47:24;5.87;;;2.60;;
16813;SDS011;8524;57.650;11.926;2022-08-04T06:49:53;2.70;;;2.10;;
16813;SDS011;8524;57.650;11.926;2022-08-04T06:52:21;4.70;;;2.10;;
16813;SDS011;8524;57.650;11.926;2022-08-04T06:54:49;2.93;;;2.07;;
16813;SDS011;8524;57.650;11.926;2022-08-04T06:57:21;5.30;;;2.43;;
16813;SDS011;8524;57.650;11.926;2022-08-04T06:59:50;4.23;;;2.30;;
16813;SDS011;8524;57.650;11.926;2022-08-04T07:02:24;4.87;;;2.40;;
16813;SDS011;8524;57.650;11.926;2022-08-04T07:04:52;4.70;;;2.27;;
16813;SDS011;8524;57.650;11.926;2022-08-04T07:07:20;3.70;;;2.00;;
16813;SDS011;8524;57.650;11.926;2022-08-04T07:09:48;5.73;;;2.03;;
16813;SDS011;8524;57.650;11.926;2022-08-04T07:12:16;2.87;;;2.00;;
16813;SDS011;8524;57.650;11.926;2022-08-04T07:14:46;2.80;;;1.63;;
16813;SDS011;8524;57.650;11.926;2022-08-04T07:17:13;4.17;;;1.73;;
16813;SDS011;8524;57.650;11.926;2022-08-04T07:19:41;2.70;;;1.70;;
16813;SDS011;8524;57.650;11.926;2022-08-04T07:22:09;4.07;;;1.70;;
16813;SDS011;8524;57.650;11.926;2022-08-04T07:24:37;2.67;;;1.70;;
16813;SDS011;8524;57.650;11.926;2022-08-04T07:27:06;3.07;;;1.80;;
16813;SDS011;8524;57.650;11.926;2022-08-04T07:29:35;2.97;;;1.70;;
16813;SDS011;8524;57.650;11.926;2022-08-04T07:32:02;2.10;;;1.87;;
16813;SDS011;8524;57.650;11.926;2022-08-04T07:34:30;4.00;;;2.20;;
16813;SDS011;8524;57.650;11.926;2022-08-04T07:36:58;2.83;;;2.00;;
16813;SDS011;8524;57.650;11.926;2022-08-04T07:39:26;4.07;;;2.30;;
16813;SDS011;8524;57.650;11.926;2022-08-04T07:41:56;5.50;;;2.20;;
16813;SDS011;8524;57.650;11.926;2022-08-04T07:44:24;3.50;;;1.87;;
16813;SDS011;8524;57.650;11.926;2022-08-04T07:46:53;5.37;;;2.20;;
16813;SDS011;8524;57.650;11.926;2022-08-04T07:49:20;3.60;;;1.70;;
16813;SDS011;8524;57.650;11.926;2022-08-04T07:51:48;3.50;;;1.90;;
16813;SDS011;8524;57.650;11.926;2022-08-04T07:54:15;3.17;;;1.80;;
16813;SDS011;8524;57.650;11.926;2022-08-04T07:56:43;2.87;;;1.70;;
16813;SDS011;8524;57.650;11.926;2022-08-04T07:59:13;2.27;;;1.70;;
16813;SDS011;8524;57.650;11.926;2022-08-04T08:01:40;3.67;;;1.90;;
16813;SDS011;8524;57.650;11.926;2022-08-04T08:04:09;3.00;;;1.90;;
16813;SDS011;8524;57.650;11.926;2022-08-04T08:06:37;3.20;;;2.00;;
16813;SDS011;8524;57.650;11.926;2022-08-04T08:09:08;2.47;;;1.60;;
16813;SDS011;8524;57.650;11.926;2022-08-04T08:11:36;3.33;;;2.00;;
16813;SDS011;8524;57.650;11.926;2022-08-04T08:14:03;2.27;;;1.73;;
16813;SDS011;8524;57.650;11.926;2022-08-04T08:16:32;3.50;;;1.80;;
16813;SDS011;8524;57.650;11.926;2022-08-04T08:19:00;2.80;;;2.03;;
16813;SDS011;8524;57.650;11.926;2022-08-04T08:21:29;3.00;;;1.63;;
16813;SDS011;8524;57.650;11.926;2022-08-04T08:23:57;3.10;;;1.93;;
16813;SDS011;8524;57.650;11.926;2022-08-04T08:26:25;3.25;;;2.10;;
16813;SDS011;8524;57.650;11.926;2022-08-04T08:28:52;3.13;;;2.10;;
16813;SDS011;8524;57.650;11.926;2022-08-04T08:31:19;3.70;;;1.83;;
16813;SDS011;8524;57.650;11.926;2022-08-04T08:33:46;2.87;;;2.20;;
16813;SDS011;8524;57.650;11.926;2022-08-04T08:36:16;3.05;;;2.10;;
16813;SDS011;8524;57.650;11.926;2022-08-04T08:38:51;3.30;;;2.03;;
16813;SDS011;8524;57.650;11.926;2022-08-04T08:44:37;2.78;;;2.10;;
16813;SDS011;8524;57.650;11.926;2022-08-04T08:47:32;2.53;;;1.90;;
16813;SDS011;8524;57.650;11.926;2022-08-04T08:50:14;3.25;;;2.30;;
16813;SDS011;8524;57.650;11.926;2022-08-04T08:52:55;2.55;;;1.95;;
16813;SDS011;8524;57.650;11.926;2022-08-04T08:55:38;3.63;;;2.20;;
16813;SDS011;8524;57.650;11.926;2022-08-04T08:58:22;3.00;;;1.83;;
16813;SDS011;8524;57.650;11.926;2022-08-04T09:01:03;3.47;;;2.08;;
16813;SDS011;8524;57.650;11.926;2022-08-04T09:03:41;2.67;;;1.95;;
16813;SDS011;8524;57.650;11.926;2022-08-04T09:12:08;3.17;;;1.95;;
16813;SDS011;8524;57.650;11.926;2022-08-04T09:14:41;2.88;;;1.92;;
16813;SDS011;8524;57.650;11.926;2022-08-04T09:17:18;3.17;;;2.30;;
16813;SDS011;8524;57.650;11.926;2022-08-04T09:19:50;3.28;;;2.22;;
16813;SDS011;8524;57.650;11.926;2022-08-04T09:22:24;3.78;;;2.10;;
16813;SDS011;8524;57.650;11.926;2022-08-04T09:24:59;2.25;;;1.90;;
16813;SDS011;8524;57.650;11.926;2022-08-04T09:27:33;2.80;;;1.80;;
16813;SDS011;8524;57.650;11.926;2022-08-04T09:30:06;3.67;;;1.92;;
16813;SDS011;8524;57.650;11.926;2022-08-04T09:32:37;2.50;;;1.80;;
16813;SDS011;8524;57.650;11.926;2022-08-04T09:35:12;2.47;;;1.65;;
16813;SDS011;8524;57.650;11.926;2022-08-04T09:37:45;3.53;;;1.90;;
16813;SDS011;8524;57.650;11.926;2022-08-04T09:40:22;2.45;;;1.77;;
16813;SDS011;8524;57.650;11.926;2022-08-04T09:42:57;4.00;;;1.88;;
16813;SDS011;8524;57.650;11.926;2022-08-04T09:45:32;2.70;;;1.95;;
16813;SDS011;8524;57.650;11.926;2022-08-04T09:48:04;3.35;;;2.28;;
16813;SDS011;8524;57.650;11.926;2022-08-04T09:50:37;3.97;;;2.22;;
16813;SDS011;8524;57.650;11.926;2022-08-04T09:53:19;3.88;;;2.22;;
16813;SDS011;8524;57.650;11.926;2022-08-04T09:55:57;5.22;;;2.97;;
16813;SDS011;8524;57.650;11.926;2022-08-04T09:58:38;7.38;;;2.92;;
16813;SDS011;8524;57.650;11.926;2022-08-04T10:01:12;5.55;;;2.67;;
16813;SDS011;8524;57.650;11.926;2022-08-04T10:03:42;5.80;;;2.95;;
16813;SDS011;8524;57.650;11.926;2022-08-04T10:09:07;4.72;;;2.83;;
16813;SDS011;8524;57.650;11.926;2022-08-04T10:11:54;6.70;;;3.05;;
16813;SDS011;8524;57.650;11.926;2022-08-04T10:14:39;4.82;;;2.60;;
16813;SDS011;8524;57.650;11.926;2022-08-04T10:17:22;3.47;;;2.50;;
16813;SDS011;8524;57.650;11.926;2022-08-04T10:20:01;8.30;;;3.40;;
16813;SDS011;8524;57.650;11.926;2022-08-04T10:22:35;4.43;;;2.40;;
16813;SDS011;8524;57.650;11.926;2022-08-04T10:25:07;5.43;;;2.78;;
16813;SDS011;8524;57.650;11.926;2022-08-04T10:27:44;5.40;;;2.75;;
16813;SDS011;8524;57.650;11.926;2022-08-04T10:30:15;4.85;;;2.70;;
16813;SDS011;8524;57.650;11.926;2022-08-04T10:32:44;4.63;;;2.70;;
16813;SDS011;8524;57.650;11.926;2022-08-04T10:35:20;5.93;;;2.63;;
16813;SDS011;8524;57.650;11.926;2022-08-04T10:37:49;5.00;;;2.65;;
16813;SDS011;8524;57.650;11.926;2022-08-04T10:40:27;6.18;;;2.50;;
16813;SDS011;8524;57.650;11.926;2022-08-04T10:43:06;4.00;;;2.78;;
16813;SDS011;8524;57.650;11.926;2022-08-04T10:45:40;5.03;;;2.80;;
16813;SDS011;8524;57.650;11.926;2022-08-04T10:48:18;5.38;;;2.97;;
16813;SDS011;8524;57.650;11.926;2022-08-04T10:50:54;6.45;;;2.80;;
16813;SDS011;8524;57.650;11.926;2022-08-04T10:53:28;5.53;;;2.50;;
16813;SDS011;8524;57.650;11.926;2022-08-04T10:55:58;5.78;;;3.33;;
16813;SDS011;8524;57.650;11.926;2022-08-04T10:58:32;6.65;;;2.88;;
16813;SDS011;8524;57.650;11.926;2022-08-04T11:01:07;8.35;;;3.05;;
16813;SDS011;8524;57.650;11.926;2022-08-04T11:03:43;6.97;;;3.40;;
16813;SDS011;8524;57.650;11.926;2022-08-04T11:06:17;5.10;;;2.60;;
16813;SDS011;8524;57.650;11.926;2022-08-04T11:08:46;6.88;;;2.90;;
16813;SDS011;8524;57.650;11.926;2022-08-04T11:11:19;7.68;;;3.15;;
16813;SDS011;8524;57.650;11.926;2022-08-04T11:13:53;7.10;;;3.42;;
16813;SDS011;8524;57.650;11.926;2022-08-04T11:16:28;6.85;;;3.20;;
16813;SDS011;8524;57.650;11.926;2022-08-04T11:19:05;4.65;;;2.78;;
16813;SDS011;8524;57.650;11.926;2022-08-04T11:21:42;7.07;;;3.25;;
16813;SDS011;8524;57.650;11.926;2022-08-04T11:24:16;6.53;;;3.05;;
16813;SDS011;8524;57.650;11.926;2022-08-04T11:26:47;8.45;;;2.83;;
16813;SDS011;8524;57.650;11.926;2022-08-04T11:29:21;6.05;;;2.83;;
16813;SDS011;8524;57.650;11.926;2022-08-04T11:31:55;5.68;;;2.60;;
16813;SDS011;8524;57.650;11.926;2022-08-04T11:34:25;7.03;;;2.97;;
16813;SDS011;8524;57.650;11.926;2022-08-04T11:36:56;4.95;;;2.63;;
16813;SDS011;8524;57.650;11.926;2022-08-04T11:39:28;4.72;;;2.47;;
16813;SDS011;8524;57.650;11.926;2022-08-04T11:42:02;5.80;;;2.85;;
16813;SDS011;8524;57.650;11.926;2022-08-04T11:44:36;5.90;;;2.53;;
16813;SDS011;8524;57.650;11.926;2022-08-04T11:47:27;6.82;;;2.42;;
16813;SDS011;8524;57.650;11.926;2022-08-04T11:49:59;6.20;;;2.58;;
16813;SDS011;8524;57.650;11.926;2022-08-04T11:52:29;6.63;;;2.72;;
16813;SDS011;8524;57.650;11.926;2022-08-04T11:55:02;7.28;;;2.33;;
16813;SDS011;8524;57.650;11.926;2022-08-04T11:57:30;8.50;;;2.90;;
16813;SDS011;8524;57.650;11.926;2022-08-04T11:59:57;6.38;;;2.55;;
16813;SDS011;8524;57.650;11.926;2022-08-04T12:02:36;6.88;;;2.60;;
16813;SDS011;8524;57.650;11.926;2022-08-04T12:05:30;6.63;;;2.53;;
16813;SDS011;8524;57.650;11.926;2022-08-04T12:08:02;7.45;;;2.38;;
16813;SDS011;8524;57.650;11.926;2022-08-04T12:10:44;7.70;;;2.33;;
16813;SDS011;8524;57.650;11.926;2022-08-04T12:13:27;5.97;;;2.50;;
16813;SDS011;8524;57.650;11.926;2022-08-04T12:16:02;5.93;;;2.53;;
16813;SDS011;8524;57.650;11.926;2022-08-04T12:18:41;6.95;;;2.70;;
16813;SDS011;8524;57.650;11.926;2022-08-04T12:21:13;5.40;;;2.40;;
16813;SDS011;8524;57.650;11.926;2022-08-04T12:23:49;7.95;;;2.60;;
16813;SDS011;8524;57.650;11.926;2022-08-04T12:26:24;6.63;;;2.60;;
16813;SDS011;8524;57.650;11.926;2022-08-04T12:28:57;5.72;;;2.60;;
16813;SDS011;8524;57.650;11.926;2022-08-04T12:31:26;5.25;;;2.17;;
16813;SDS011;8524;57.650;11.926;2022-08-04T12:34:00;7.25;;;2.85;;
16813;SDS011;8524;57.650;11.926;2022-08-04T12:36:34;6.68;;;2.38;;
16813;SDS011;8524;57.650;11.926;2022-08-04T12:39:08;6.10;;;2.42;;
16813;SDS011;8524;57.650;11.926;2022-08-04T12:41:38;5.28;;;2.47;;
16813;SDS011;8524;57.650;11.926;2022-08-04T12:44:09;3.75;;;2.50;;
16813;SDS011;8524;57.650;11.926;2022-08-04T12:46:38;4.93;;;2.70;;
16813;SDS011;8524;57.650;11.926;2022-08-04T12:49:11;4.40;;;2.47;;
16813;SDS011;8524;57.650;11.926;2022-08-04T12:51:41;5.63;;;2.28;;
16813;SDS011;8524;57.650;11.926;2022-08-04T12:54:10;3.28;;;2.25;;
16813;SDS011;8524;57.650;11.926;2022-08-04T12:56:37;7.20;;;2.40;;
16813;SDS011;8524;57.650;11.926;2022-08-04T12:59:07;5.68;;;2.30;;
16813;SDS011;8524;57.650;11.926;2022-08-04T13:01:35;3.30;;;2.10;;
16813;SDS011;8524;57.650;11.926;2022-08-04T13:04:11;5.50;;;2.40;;
16813;SDS011;8524;57.650;11.926;2022-08-04T13:06:40;7.43;;;2.40;;
16813;SDS011;8524;57.650;11.926;2022-08-04T13:09:10;5.45;;;2.20;;
16813;SDS011;8524;57.650;11.926;2022-08-04T13:11:40;6.07;;;2.30;;
16813;SDS011;8524;57.650;11.926;2022-08-04T13:14:12;4.80;;;2.22;;
16813;SDS011;8524;57.650;11.926;2022-08-04T13:16:41;3.53;;;2.20;;
16813;SDS011;8524;57.650;11.926;2022-08-04T13:19:08;6.60;;;2.30;;
16813;SDS011;8524;57.650;11.926;2022-08-04T13:21:39;6.72;;;2.10;;
16813;SDS011;8524;57.650;11.926;2022-08-04T13:24:09;6.55;;;2.53;;
16813;SDS011;8524;57.650;11.926;2022-08-04T13:26:48;4.63;;;2.35;;
16813;SDS011;8524;57.650;11.926;2022-08-04T13:29:19;5.50;;;2.60;;
16813;SDS011;8524;57.650;11.926;2022-08-04T13:31:48;5.63;;;2.00;;
16813;SDS011;8524;57.650;11.926;2022-08-04T13:34:18;5.05;;;2.15;;
16813;SDS011;8524;57.650;11.926;2022-08-04T13:36:46;4.53;;;2.50;;
16813;SDS011;8524;57.650;11.926;2022-08-04T13:39:15;6.30;;;2.28;;
16813;SDS011;8524;57.650;11.926;2022-08-04T13:41:45;5.07;;;2.13;;
16813;SDS011;8524;57.650;11.926;2022-08-04T13:44:17;6.88;;;2.30;;
16813;SDS011;8524;57.650;11.926;2022-08-04T13:46:46;3.25;;;2.35;;
16813;SDS011;8524;57.650;11.926;2022-08-04T13:49:16;3.22;;;2.10;;
16813;SDS011;8524;57.650;11.926;2022-08-04T13:51:50;4.38;;;2.40;;
16813;SDS011;8524;57.650;11.926;2022-08-04T13:54:18;4.07;;;2.20;;
16813;SDS011;8524;57.650;11.926;2022-08-04T13:56:46;6.05;;;2.35;;
16813;SDS011;8524;57.650;11.926;2022-08-04T13:59:16;2.90;;;1.92;;
16813;SDS011;8524;57.650;11.926;2022-08-04T14:01:46;7.03;;;2.40;;
16813;SDS011;8524;57.650;11.926;2022-08-04T14:04:26;7.93;;;3.22;;
16813;SDS011;8524;57.650;11.926;2022-08-04T14:06:58;9.82;;;3.58;;
16813;SDS011;8524;57.650;11.926;2022-08-04T14:09:28;20.33;;;6.10;;
16813;SDS011;8524;57.650;11.926;2022-08-04T14:12:02;24.47;;;7.50;;
16813;SDS011;8524;57.650;11.926;2022-08-04T14:14:31;20.43;;;5.60;;
16813;SDS011;8524;57.650;11.926;2022-08-04T14:17:01;16.50;;;4.23;;
16813;SDS011;8524;57.650;11.926;2022-08-04T14:22:26;12.50;;;3.83;;
16813;SDS011;8524;57.650;11.926;2022-08-04T14:24:59;13.03;;;4.03;;
16813;SDS011;8524;57.650;11.926;2022-08-04T14:27:29;13.37;;;4.13;;
16813;SDS011;8524;57.650;11.926;2022-08-04T14:30:06;13.53;;;3.83;;
16813;SDS011;8524;57.650;11.926;2022-08-04T14:32:52;13.60;;;3.95;;
16813;SDS011;8524;57.650;11.926;2022-08-04T14:35:28;12.47;;;3.70;;
16813;SDS011;8524;57.650;11.926;2022-08-04T14:37:57;10.97;;;4.27;;
16813;SDS011;8524;57.650;11.926;2022-08-04T14:40:26;10.88;;;3.30;;
16813;SDS011;8524;57.650;11.926;2022-08-04T14:42:55;7.90;;;2.87;;
16813;SDS011;8524;57.650;11.926;2022-08-04T14:45:26;9.57;;;2.60;;
16813;SDS011;8524;57.650;11.926;2022-08-04T14:47:55;11.93;;;3.40;;
16813;SDS011;8524;57.650;11.926;2022-08-04T14:50:32;12.07;;;2.73;;
16813;SDS011;8524;57.650;11.926;2022-08-04T14:53:03;7.90;;;2.50;;
16813;SDS011;8524;57.650;11.926;2022-08-04T14:55:31;9.50;;;2.60;;
16813;SDS011;8524;57.650;11.926;2022-08-04T14:57:58;5.40;;;2.03;;
16813;SDS011;8524;57.650;11.926;2022-08-04T15:00:26;9.10;;;2.40;;
16813;SDS011;8524;57.650;11.926;2022-08-04T15:02:56;4.80;;;1.80;;
16813;SDS011;8524;57.650;11.926;2022-08-04T15:05:27;7.33;;;2.30;;
16813;SDS011;8524;57.650;11.926;2022-08-04T15:07:56;8.00;;;2.20;;
16813;SDS011;8524;57.650;11.926;2022-08-04T15:10:23;6.17;;;2.40;;
16813;SDS011;8524;57.650;11.926;2022-08-04T15:12:51;8.43;;;2.40;;
16813;SDS011;8524;57.650;11.926;2022-08-04T15:15:18;7.40;;;2.13;;
16813;SDS011;8524;57.650;11.926;2022-08-04T15:17:45;5.53;;;2.20;;
16813;SDS011;8524;57.650;11.926;2022-08-04T15:20:12;6.27;;;2.23;;
16813;SDS011;8524;57.650;11.926;2022-08-04T15:22:41;5.93;;;2.37;;
16813;SDS011;8524;57.650;11.926;2022-08-04T15:25:10;7.17;;;2.50;;
16813;SDS011;8524;57.650;11.926;2022-08-04T15:27:37;3.30;;;1.90;;
16813;SDS011;8524;57.650;11.926;2022-08-04T15:30:06;4.72;;;2.00;;
16813;SDS011;8524;57.650;11.926;2022-08-04T15:32:35;4.73;;;2.27;;
16813;SDS011;8524;57.650;11.926;2022-08-04T15:35:04;4.60;;;2.30;;
16813;SDS011;8524;57.650;11.926;2022-08-04T15:37:38;8.67;;;2.67;;
16813;SDS011;8524;57.650;11.926;2022-08-04T15:40:12;5.03;;;2.20;;
16813;SDS011;8524;57.650;11.926;2022-08-04T15:42:43;6.63;;;2.70;;
16813;SDS011;8524;57.650;11.926;2022-08-04T15:45:19;8.23;;;2.70;;
16813;SDS011;8524;57.650;11.926;2022-08-04T15:51:05;11.27;;;3.63;;
16813;SDS011;8524;57.650;11.926;2022-08-04T15:56:49;7.53;;;2.77;;
16813;SDS011;8524;57.650;11.926;2022-08-04T16:05:28;7.37;;;3.07;;
16813;SDS011;8524;57.650;11.926;2022-08-04T16:08:07;9.03;;;3.90;;
16813;SDS011;8524;57.650;11.926;2022-08-04T16:10:39;13.10;;;4.28;;
16813;SDS011;8524;57.650;11.926;2022-08-04T16:13:09;11.03;;;4.30;;
16813;SDS011;8524;57.650;11.926;2022-08-04T16:15:39;17.53;;;5.30;;
16813;SDS011;8524;57.650;11.926;2022-08-04T16:18:11;12.20;;;4.30;;
16813;SDS011;8524;57.650;11.926;2022-08-04T16:20:45;16.97;;;5.30;;
16813;SDS011;8524;57.650;11.926;2022-08-04T16:23:21;18.60;;;5.80;;
16813;SDS011;8524;57.650;11.926;2022-08-04T16:26:41;17.88;;;6.18;;